sensor_id;sensor_type;location;lat;lon;timestamp;pressure;altitude;pressure_sealevel;temperature;humidity
12785;BME280;6456;42.680;23.260;2023-03-25T00:02:13;94390.41;;;10.76;88.43
12785;BME280;6456;42.680;23.260;2023-03-25T00:04:40;94395.66;;;10.76;88.28
12785;BME280;6456;42.680;23.260;2023-03-25T00:07:07;94382.28;;;10.59;88.64
12785;BME280;6456;42.680;23.260;2023-03-25T00:09:34;94400.63;;;10.66;88.98
12785;BME280;6456;42.680;23.260;2023-03-25T00:12:03;94395.44;;;10.59;89.44
12785;BME280;6456;42.680;23.260;2023-03-25T00:14:30;94390.19;;;10.59;89.76
12785;BME280;6456;42.680;23.260;2023-03-25T00:17:00;94393.81;;;10.58;90.10
12785;BME280;6456;42.680;23.260;2023-03-25T00:19:27;94298.25;;;10.03;90.03
12785;BME280;6456;42.680;23.260;2023-03-25T00:21:54;94375.03;;;10.55;90.48
12785;BME280;6456;42.680;23.260;2023-03-25T00:24:21;94326.19;;;10.22;90.64
12785;BME280;6456;42.680;23.260;2023-03-25T00:26:48;94369.63;;;10.50;90.86
12785;BME280;6456;42.680;23.260;2023-03-25T00:29:16;94340.00;;;10.18;90.83
12785;BME280;6456;42.680;23.260;2023-03-25T00:31:43;94368.22;;;10.47;90.79
12785;BME280;6456;42.680;23.260;2023-03-25T00:34:10;94367.88;;;10.44;90.94
12785;BME280;6456;42.680;23.260;2023-03-25T00:36:38;94368.31;;;10.41;91.09
12785;BME280;6456;42.680;23.260;2023-03-25T00:39:06;94369.97;;;10.35;91.15
12785;BME280;6456;42.680;23.260;2023-03-25T00:41:33;94342.13;;;10.03;91.91
12785;BME280;6456;42.680;23.260;2023-03-25T00:44:02;94344.41;;;9.99;92.54
12785;BME280;6456;42.680;23.260;2023-03-25T00:46:32;94351.03;;;10.02;93.04
12785;BME280;6456;42.680;23.260;2023-03-25T00:48:59;94363.53;;;10.06;93.87
12785;BME280;6456;42.680;23.260;2023-03-25T00:51:27;94343.63;;;9.92;94.50
12785;BME280;6456;42.680;23.260;2023-03-25T00:53:56;94333.16;;;9.86;94.42
12785;BME280;6456;42.680;23.260;2023-03-25T00:56:25;94306.00;;;9.74;94.58
12785;BME280;6456;42.680;23.260;2023-03-25T00:58:52;94331.78;;;9.83;94.77
12785;BME280;6456;42.680;23.260;2023-03-25T01:01:21;94357.25;;;10.07;95.06
12785;BME280;6456;42.680;23.260;2023-03-25T01:03:53;94311.81;;;9.76;95.28
12785;BME280;6456;42.680;23.260;2023-03-25T01:06:24;94350.22;;;10.01;94.97
12785;BME280;6456;42.680;23.260;2023-03-25T01:08:54;94344.81;;;9.96;95.15
12785;BME280;6456;42.680;23.260;2023-03-25T01:11:26;94342.69;;;9.87;95.86
12785;BME280;6456;42.680;23.260;2023-03-25T01:13:54;94270.47;;;9.40;96.05
12785;BME280;6456;42.680;23.260;2023-03-25T01:16:21;94340.25;;;9.85;95.78
12785;BME280;6456;42.680;23.260;2023-03-25T01:18:48;94335.81;;;9.86;95.76
12785;BME280;6456;42.680;23.260;2023-03-25T01:21:17;94313.72;;;9.68;95.90
12785;BME280;6456;42.680;23.260;2023-03-25T01:23:44;94330.16;;;9.82;95.90
12785;BME280;6456;42.680;23.260;2023-03-25T01:26:11;94326.94;;;9.80;96.29
12785;BME280;6456;42.680;23.260;2023-03-25T01:28:39;94318.09;;;9.75;96.58
12785;BME280;6456;42.680;23.260;2023-03-25T01:31:07;94290.25;;;9.67;96.62
12785;BME280;6456;42.680;23.260;2023-03-25T01:33:35;94316.84;;;9.77;96.65
12785;BME280;6456;42.680;23.260;2023-03-25T01:36:03;94317.63;;;9.84;96.12
12785;BME280;6456;42.680;23.260;2023-03-25T01:38:35;94312.38;;;9.84;95.91
12785;BME280;6456;42.680;23.260;2023-03-25T01:41:03;94301.41;;;9.87;95.74
12785;BME280;6456;42.680;23.260;2023-03-25T01:43:31;94294.25;;;9.76;95.05
12785;BME280;6456;42.680;23.260;2023-03-25T01:45:58;94305.06;;;9.86;94.90
12785;BME280;6456;42.680;23.260;2023-03-25T01:48:27;94284.38;;;9.72;94.55
12785;BME280;6456;42.680;23.260;2023-03-25T01:51:01;94310.19;;;9.81;94.45
12785;BME280;6456;42.680;23.260;2023-03-25T01:53:31;94308.41;;;9.75;94.93
12785;BME280;6456;42.680;23.260;2023-03-25T01:56:02;94306.41;;;9.71;94.92
12785;BME280;6456;42.680;23.260;2023-03-25T01:58:32;94292.41;;;9.52;95.52
12785;BME280;6456;42.680;23.260;2023-03-25T02:01:01;94276.53;;;9.40;96.48
12785;BME280;6456;42.680;23.260;2023-03-25T02:03:29;94307.53;;;9.56;96.68
12785;BME280;6456;42.680;23.260;2023-03-25T02:06:03;94302.06;;;9.58;96.65
12785;BME280;6456;42.680;23.260;2023-03-25T02:08:32;94299.84;;;9.55;96.71
12785;BME280;6456;42.680;23.260;2023-03-25T02:11:05;94302.91;;;9.52;97.12
12785;BME280;6456;42.680;23.260;2023-03-25T02:13:34;94303.53;;;9.54;97.13
12785;BME280;6456;42.680;23.260;2023-03-25T02:16:19;94301.47;;;9.56;97.27
12785;BME280;6456;42.680;23.260;2023-03-25T02:18:54;94289.16;;;9.56;97.62
12785;BME280;6456;42.680;23.260;2023-03-25T02:25:22;94280.81;;;9.35;97.32
12785;BME280;6456;42.680;23.260;2023-03-25T02:28:08;94288.84;;;9.40;97.70
12785;BME280;6456;42.680;23.260;2023-03-25T02:30:55;94293.34;;;9.33;97.84
12785;BME280;6456;42.680;23.260;2023-03-25T02:34:04;94269.28;;;9.11;98.67
12785;BME280;6456;42.680;23.260;2023-03-25T02:39:50;94286.19;;;9.15;99.08
12785;BME280;6456;42.680;23.260;2023-03-25T02:42:24;94288.19;;;9.20;98.86
12785;BME280;6456;42.680;23.260;2023-03-25T02:44:56;94275.69;;;9.15;98.89
12785;BME280;6456;42.680;23.260;2023-03-25T02:47:28;94280.16;;;9.15;98.81
12785;BME280;6456;42.680;23.260;2023-03-25T02:49:59;94266.25;;;9.08;98.76
12785;BME280;6456;42.680;23.260;2023-03-25T02:52:31;94253.44;;;8.93;98.74
12785;BME280;6456;42.680;23.260;2023-03-25T02:55:05;94276.13;;;9.12;99.19
12785;BME280;6456;42.680;23.260;2023-03-25T02:57:37;94274.31;;;9.13;98.59
12785;BME280;6456;42.680;23.260;2023-03-25T03:00:07;94254.06;;;8.88;98.78
12785;BME280;6456;42.680;23.260;2023-03-25T03:02:42;94261.72;;;8.96;99.25
12785;BME280;6456;42.680;23.260;2023-03-25T03:05:28;94267.03;;;9.15;99.36
12785;BME280;6456;42.680;23.260;2023-03-25T03:08:09;94265.22;;;9.15;98.76
12785;BME280;6456;42.680;23.260;2023-03-25T03:10:47;94249.75;;;9.00;98.87
12785;BME280;6456;42.680;23.260;2023-03-25T03:13:22;94259.84;;;9.03;98.30
12785;BME280;6456;42.680;23.260;2023-03-25T03:15:58;94255.88;;;8.88;98.53
12785;BME280;6456;42.680;23.260;2023-03-25T03:18:41;94270.97;;;8.99;98.75
12785;BME280;6456;42.680;23.260;2023-03-25T03:21:13;94272.41;;;8.95;99.01
12785;BME280;6456;42.680;23.260;2023-03-25T03:23:49;94247.09;;;8.69;98.95
12785;BME280;6456;42.680;23.260;2023-03-25T03:26:25;94240.91;;;8.57;99.59
12785;BME280;6456;42.680;23.260;2023-03-25T03:28:59;94274.72;;;8.78;100.00
12785;BME280;6456;42.680;23.260;2023-03-25T03:31:35;94265.81;;;8.79;100.00
12785;BME280;6456;42.680;23.260;2023-03-25T03:34:08;94215.78;;;8.43;100.00
12785;BME280;6456;42.680;23.260;2023-03-25T03:36:43;94204.34;;;8.31;100.00
12785;BME280;6456;42.680;23.260;2023-03-25T03:39:15;94277.22;;;8.60;100.00
12785;BME280;6456;42.680;23.260;2023-03-25T03:41:49;94284.84;;;8.68;100.00
12785;BME280;6456;42.680;23.260;2023-03-25T03:44:19;94269.53;;;8.65;100.00
12785;BME280;6456;42.680;23.260;2023-03-25T03:46:51;94236.88;;;8.55;100.00
12785;BME280;6456;42.680;23.260;2023-03-25T03:49:26;94268.34;;;8.61;100.00
12785;BME280;6456;42.680;23.260;2023-03-25T03:51:58;94284.00;;;8.74;100.00
12785;BME280;6456;42.680;23.260;2023-03-25T03:54:30;94282.59;;;8.78;100.00
12785;BME280;6456;42.680;23.260;2023-03-25T03:57:03;94230.06;;;8.47;99.79
12785;BME280;6456;42.680;23.260;2023-03-25T03:59:40;94291.03;;;8.80;99.90
12785;BME280;6456;42.680;23.260;2023-03-25T04:02:12;94238.78;;;8.41;99.75
12785;BME280;6456;42.680;23.260;2023-03-25T04:04:42;94254.91;;;8.38;99.90
12785;BME280;6456;42.680;23.260;2023-03-25T04:07:13;94274.63;;;8.54;100.00
12785;BME280;6456;42.680;23.260;2023-03-25T04:09:50;94277.41;;;8.65;100.00
12785;BME280;6456;42.680;23.260;2023-03-25T04:12:24;94280.00;;;8.65;100.00
12785;BME280;6456;42.680;23.260;2023-03-25T04:14:52;94283.28;;;8.61;100.00
12785;BME280;6456;42.680;23.260;2023-03-25T04:17:20;94269.56;;;8.59;100.00
12785;BME280;6456;42.680;23.260;2023-03-25T04:19:47;94276.34;;;8.73;100.00
12785;BME280;6456;42.680;23.260;2023-03-25T04:22:18;94265.28;;;8.64;100.00
12785;BME280;6456;42.680;23.260;2023-03-25T04:24:47;94267.53;;;8.61;100.00
12785;BME280;6456;42.680;23.260;2023-03-25T04:27:16;94271.50;;;8.70;100.00
12785;BME280;6456;42.680;23.260;2023-03-25T04:29:44;94217.44;;;8.31;100.00
12785;BME280;6456;42.680;23.260;2023-03-25T04:32:12;94252.44;;;8.56;100.00
12785;BME280;6456;42.680;23.260;2023-03-25T04:34:45;94285.63;;;8.75;100.00
12785;BME280;6456;42.680;23.260;2023-03-25T04:37:12;94277.34;;;8.78;99.03
12785;BME280;6456;42.680;23.260;2023-03-25T04:39:42;94280.78;;;8.79;98.79
12785;BME280;6456;42.680;23.260;2023-03-25T04:42:09;94278.75;;;8.74;98.94
12785;BME280;6456;42.680;23.260;2023-03-25T04:44:38;94287.19;;;8.83;98.83
12785;BME280;6456;42.680;23.260;2023-03-25T04:47:08;94285.75;;;8.87;99.03
12785;BME280;6456;42.680;23.260;2023-03-25T04:49:39;94290.41;;;8.91;99.15
12785;BME280;6456;42.680;23.260;2023-03-25T04:52:09;94255.41;;;8.66;98.78
12785;BME280;6456;42.680;23.260;2023-03-25T04:54:36;94298.44;;;8.96;98.88
12785;BME280;6456;42.680;23.260;2023-03-25T04:57:08;94265.03;;;8.79;98.33
12785;BME280;6456;42.680;23.260;2023-03-25T04:59:36;94264.22;;;8.78;98.35
12785;BME280;6456;42.680;23.260;2023-03-25T05:02:03;94293.16;;;9.03;98.33
12785;BME280;6456;42.680;23.260;2023-03-25T05:04:32;94276.63;;;8.96;97.92
12785;BME280;6456;42.680;23.260;2023-03-25T05:06:59;94283.47;;;9.03;97.96
12785;BME280;6456;42.680;23.260;2023-03-25T05:09:26;94276.59;;;9.02;97.55
12785;BME280;6456;42.680;23.260;2023-03-25T05:11:54;94224.47;;;8.75;96.38
12785;BME280;6456;42.680;23.260;2023-03-25T05:14:21;94299.84;;;9.30;95.83
12785;BME280;6456;42.680;23.260;2023-03-25T05:16:49;94289.91;;;9.32;95.50
12785;BME280;6456;42.680;23.260;2023-03-25T05:19:16;94298.34;;;9.41;95.20
12785;BME280;6456;42.680;23.260;2023-03-25T05:21:46;94293.50;;;9.44;95.10
12785;BME280;6456;42.680;23.260;2023-03-25T05:24:13;94292.41;;;9.52;94.47
12785;BME280;6456;42.680;23.260;2023-03-25T05:26:41;94271.09;;;9.42;94.36
12785;BME280;6456;42.680;23.260;2023-03-25T05:29:09;94292.09;;;9.66;93.59
12785;BME280;6456;42.680;23.260;2023-03-25T05:31:38;94290.06;;;9.68;93.12
12785;BME280;6456;42.680;23.260;2023-03-25T05:34:05;94288.56;;;9.79;92.01
12785;BME280;6456;42.680;23.260;2023-03-25T05:36:33;94301.09;;;9.77;92.44
12785;BME280;6456;42.680;23.260;2023-03-25T05:39:02;94295.22;;;9.82;92.41
12785;BME280;6456;42.680;23.260;2023-03-25T05:41:33;94294.59;;;9.80;92.91
12785;BME280;6456;42.680;23.260;2023-03-25T05:44:03;94285.56;;;9.76;93.48
12785;BME280;6456;42.680;23.260;2023-03-25T05:46:30;94308.44;;;9.93;93.60
12785;BME280;6456;42.680;23.260;2023-03-25T05:48:57;94275.59;;;9.84;93.83
12785;BME280;6456;42.680;23.260;2023-03-25T05:51:25;94283.78;;;9.94;93.57
12785;BME280;6456;42.680;23.260;2023-03-25T05:53:52;94300.78;;;10.16;93.35
12785;BME280;6456;42.680;23.260;2023-03-25T05:56:22;94290.41;;;10.21;93.41
12785;BME280;6456;42.680;23.260;2023-03-25T05:58:51;94254.56;;;10.02;93.47
12785;BME280;6456;42.680;23.260;2023-03-25T06:01:19;94289.41;;;10.41;93.46
12785;BME280;6456;42.680;23.260;2023-03-25T06:03:47;94301.22;;;10.50;93.01
12785;BME280;6456;42.680;23.260;2023-03-25T06:06:14;94287.50;;;10.48;92.69
12785;BME280;6456;42.680;23.260;2023-03-25T06:08:44;94296.88;;;10.62;93.78
12785;BME280;6456;42.680;23.260;2023-03-25T06:11:11;94290.13;;;10.66;94.84
12785;BME280;6456;42.680;23.260;2023-03-25T06:13:40;94291.22;;;10.76;94.96
12785;BME280;6456;42.680;23.260;2023-03-25T06:16:16;94287.81;;;10.87;93.04
12785;BME280;6456;42.680;23.260;2023-03-25T06:18:45;94284.88;;;10.95;90.95
12785;BME280;6456;42.680;23.260;2023-03-25T06:21:16;94283.88;;;10.97;89.30
12785;BME280;6456;42.680;23.260;2023-03-25T06:23:43;94267.13;;;10.91;87.92
12785;BME280;6456;42.680;23.260;2023-03-25T06:26:10;94290.50;;;11.17;86.70
12785;BME280;6456;42.680;23.260;2023-03-25T06:28:36;94266.53;;;11.07;86.90
12785;BME280;6456;42.680;23.260;2023-03-25T06:31:11;94289.88;;;11.15;87.27
12785;BME280;6456;42.680;23.260;2023-03-25T06:33:38;94289.44;;;11.18;87.90
12785;BME280;6456;42.680;23.260;2023-03-25T06:36:07;94288.91;;;11.28;87.65
12785;BME280;6456;42.680;23.260;2023-03-25T06:38:35;94285.94;;;11.24;86.00
12785;BME280;6456;42.680;23.260;2023-03-25T06:41:02;94279.63;;;11.25;86.27
12785;BME280;6456;42.680;23.260;2023-03-25T06:43:29;94301.78;;;11.47;85.76
12785;BME280;6456;42.680;23.260;2023-03-25T06:45:56;94267.28;;;11.37;83.98
12785;BME280;6456;42.680;23.260;2023-03-25T06:48:25;94287.38;;;11.62;83.52
12785;BME280;6456;42.680;23.260;2023-03-25T06:50:51;94303.50;;;11.83;82.76
12785;BME280;6456;42.680;23.260;2023-03-25T06:53:18;94313.47;;;11.93;84.00
12785;BME280;6456;42.680;23.260;2023-03-25T06:55:45;94312.69;;;12.04;82.91
12785;BME280;6456;42.680;23.260;2023-03-25T06:58:12;94288.38;;;12.02;81.74
12785;BME280;6456;42.680;23.260;2023-03-25T07:00:39;94316.72;;;12.30;81.04
12785;BME280;6456;42.680;23.260;2023-03-25T07:03:06;94301.56;;;12.25;81.48
12785;BME280;6456;42.680;23.260;2023-03-25T07:05:34;94319.91;;;12.43;81.13
12785;BME280;6456;42.680;23.260;2023-03-25T07:08:01;94315.09;;;12.52;80.72
12785;BME280;6456;42.680;23.260;2023-03-25T07:10:29;94302.91;;;12.62;81.84
12785;BME280;6456;42.680;23.260;2023-03-25T07:12:56;94266.81;;;12.40;79.83
12785;BME280;6456;42.680;23.260;2023-03-25T07:15:23;94307.00;;;12.81;78.67
12785;BME280;6456;42.680;23.260;2023-03-25T07:17:50;94307.31;;;12.97;77.20
12785;BME280;6456;42.680;23.260;2023-03-25T07:20:17;94304.88;;;13.07;76.58
12785;BME280;6456;42.680;23.260;2023-03-25T07:22:45;94304.03;;;13.18;75.93
12785;BME280;6456;42.680;23.260;2023-03-25T07:25:12;94308.81;;;13.32;75.98
12785;BME280;6456;42.680;23.260;2023-03-25T07:27:39;94304.75;;;13.41;75.82
12785;BME280;6456;42.680;23.260;2023-03-25T07:30:07;94305.66;;;13.47;74.94
12785;BME280;6456;42.680;23.260;2023-03-25T07:32:34;94288.34;;;13.56;74.10
12785;BME280;6456;42.680;23.260;2023-03-25T07:35:01;94288.84;;;13.70;73.65
12785;BME280;6456;42.680;23.260;2023-03-25T07:37:28;94299.75;;;13.90;73.37
12785;BME280;6456;42.680;23.260;2023-03-25T07:39:56;94301.84;;;14.04;73.22
12785;BME280;6456;42.680;23.260;2023-03-25T07:42:23;94295.41;;;14.17;72.50
12785;BME280;6456;42.680;23.260;2023-03-25T07:44:49;94284.66;;;14.24;71.41
12785;BME280;6456;42.680;23.260;2023-03-25T07:47:16;94286.25;;;14.41;70.72
12785;BME280;6456;42.680;23.260;2023-03-25T07:49:43;94280.63;;;14.54;69.88
12785;BME280;6456;42.680;23.260;2023-03-25T07:52:11;94278.34;;;14.63;69.06
12785;BME280;6456;42.680;23.260;2023-03-25T07:54:37;94233.94;;;14.48;68.46
12785;BME280;6456;42.680;23.260;2023-03-25T07:57:05;94251.88;;;14.63;68.93
12785;BME280;6456;42.680;23.260;2023-03-25T07:59:32;94273.97;;;14.73;69.84
12785;BME280;6456;42.680;23.260;2023-03-25T08:01:59;94266.66;;;14.81;68.59
12785;BME280;6456;42.680;23.260;2023-03-25T08:04:26;94264.38;;;14.89;69.21
12785;BME280;6456;42.680;23.260;2023-03-25T08:06:53;94237.34;;;14.87;68.62
12785;BME280;6456;42.680;23.260;2023-03-25T08:09:19;94238.50;;;14.96;67.27
12785;BME280;6456;42.680;23.260;2023-03-25T08:11:47;94236.59;;;15.18;66.71
12785;BME280;6456;42.680;23.260;2023-03-25T08:14:15;94250.59;;;15.35;66.05
12785;BME280;6456;42.680;23.260;2023-03-25T08:16:42;94247.59;;;15.54;67.32
12785;BME280;6456;42.680;23.260;2023-03-25T08:19:08;94249.38;;;15.75;65.95
12785;BME280;6456;42.680;23.260;2023-03-25T08:21:36;94252.69;;;15.92;65.16
12785;BME280;6456;42.680;23.260;2023-03-25T08:24:03;94219.56;;;15.99;65.25
12785;BME280;6456;42.680;23.260;2023-03-25T08:26:30;94230.16;;;16.36;63.17
12785;BME280;6456;42.680;23.260;2023-03-25T08:28:58;94248.91;;;16.61;61.48
12785;BME280;6456;42.680;23.260;2023-03-25T08:31:30;94241.22;;;16.60;60.23
12785;BME280;6456;42.680;23.260;2023-03-25T08:33:56;94243.66;;;16.72;60.26
12785;BME280;6456;42.680;23.260;2023-03-25T08:36:24;94238.66;;;16.80;61.50
12785;BME280;6456;42.680;23.260;2023-03-25T08:38:51;94216.34;;;16.91;60.78
12785;BME280;6456;42.680;23.260;2023-03-25T08:41:18;94218.78;;;16.93;60.37
12785;BME280;6456;42.680;23.260;2023-03-25T08:43:48;94230.97;;;16.94;58.42
12785;BME280;6456;42.680;23.260;2023-03-25T08:46:15;94221.88;;;16.75;58.55
12785;BME280;6456;42.680;23.260;2023-03-25T08:48:43;94233.66;;;16.99;58.31
12785;BME280;6456;42.680;23.260;2023-03-25T08:51:10;94219.56;;;16.93;60.26
12785;BME280;6456;42.680;23.260;2023-03-25T08:53:37;94222.97;;;16.89;58.58
12785;BME280;6456;42.680;23.260;2023-03-25T08:56:04;94226.72;;;16.88;58.47
12785;BME280;6456;42.680;23.260;2023-03-25T08:58:32;94220.31;;;16.89;58.10
12785;BME280;6456;42.680;23.260;2023-03-25T09:00:58;94208.63;;;16.80;59.32
12785;BME280;6456;42.680;23.260;2023-03-25T09:03:25;94196.63;;;16.72;58.50
12785;BME280;6456;42.680;23.260;2023-03-25T09:05:53;94213.69;;;16.91;59.32
12785;BME280;6456;42.680;23.260;2023-03-25T09:08:21;94215.63;;;17.01;58.91
12785;BME280;6456;42.680;23.260;2023-03-25T09:10:48;94191.69;;;16.96;59.38
12785;BME280;6456;42.680;23.260;2023-03-25T09:13:15;94208.19;;;17.13;56.54
12785;BME280;6456;42.680;23.260;2023-03-25T09:15:41;94190.13;;;17.20;55.99
12785;BME280;6456;42.680;23.260;2023-03-25T09:18:08;94183.22;;;17.39;55.49
12785;BME280;6456;42.680;23.260;2023-03-25T09:20:35;94198.72;;;17.57;54.86
12785;BME280;6456;42.680;23.260;2023-03-25T09:23:03;94177.16;;;17.69;57.48
12785;BME280;6456;42.680;23.260;2023-03-25T09:25:30;94191.78;;;17.76;54.64
12785;BME280;6456;42.680;23.260;2023-03-25T09:27:57;94184.34;;;17.68;53.88
12785;BME280;6456;42.680;23.260;2023-03-25T09:30:24;94182.22;;;17.70;54.94
12785;BME280;6456;42.680;23.260;2023-03-25T09:32:51;94191.78;;;17.81;54.97
12785;BME280;6456;42.680;23.260;2023-03-25T09:35:17;94171.56;;;17.75;55.92
12785;BME280;6456;42.680;23.260;2023-03-25T09:37:44;94184.34;;;17.99;55.63
12785;BME280;6456;42.680;23.260;2023-03-25T09:40:15;94193.38;;;18.03;54.82
12785;BME280;6456;42.680;23.260;2023-03-25T09:42:56;94187.50;;;18.11;54.90
12785;BME280;6456;42.680;23.260;2023-03-25T09:45:31;94184.22;;;18.39;54.13
12785;BME280;6456;42.680;23.260;2023-03-25T09:48:04;94179.97;;;18.43;52.27
12785;BME280;6456;42.680;23.260;2023-03-25T09:50:36;94178.88;;;18.59;49.84
12785;BME280;6456;42.680;23.260;2023-03-25T09:53:11;94182.09;;;18.56;49.00
12785;BME280;6456;42.680;23.260;2023-03-25T09:55:45;94179.16;;;18.52;49.11
12785;BME280;6456;42.680;23.260;2023-03-25T09:58:28;94161.03;;;18.54;51.30
12785;BME280;6456;42.680;23.260;2023-03-25T10:01:05;94146.06;;;18.69;48.97
12785;BME280;6456;42.680;23.260;2023-03-25T10:03:47;94164.31;;;18.95;48.57
12785;BME280;6456;42.680;23.260;2023-03-25T10:06:18;94162.09;;;19.12;46.55
12785;BME280;6456;42.680;23.260;2023-03-25T10:11:48;94150.53;;;19.66;43.23
12785;BME280;6456;42.680;23.260;2023-03-25T10:14:20;94130.22;;;19.70;42.85
12785;BME280;6456;42.680;23.260;2023-03-25T10:16:59;94139.56;;;19.67;42.49
12785;BME280;6456;42.680;23.260;2023-03-25T10:19:40;94126.31;;;19.57;46.33
12785;BME280;6456;42.680;23.260;2023-03-25T10:22:13;94111.94;;;19.82;44.80
12785;BME280;6456;42.680;23.260;2023-03-25T10:24:46;94110.38;;;20.05;43.35
12785;BME280;6456;42.680;23.260;2023-03-25T10:27:21;94117.66;;;19.99;42.58
12785;BME280;6456;42.680;23.260;2023-03-25T10:29:51;94119.81;;;19.97;45.45
12785;BME280;6456;42.680;23.260;2023-03-25T10:32:28;94112.75;;;19.54;44.77
12785;BME280;6456;42.680;23.260;2023-03-25T10:34:59;94122.94;;;19.47;45.44
12785;BME280;6456;42.680;23.260;2023-03-25T10:37:32;94105.09;;;19.42;45.22
12785;BME280;6456;42.680;23.260;2023-03-25T10:40:12;94101.63;;;19.42;46.16
12785;BME280;6456;42.680;23.260;2023-03-25T10:42:46;94096.03;;;19.43;46.09
12785;BME280;6456;42.680;23.260;2023-03-25T10:45:21;94105.81;;;19.53;45.60
12785;BME280;6456;42.680;23.260;2023-03-25T10:47:50;94108.47;;;19.53;46.35
12785;BME280;6456;42.680;23.260;2023-03-25T10:50:20;94079.81;;;19.30;46.97
12785;BME280;6456;42.680;23.260;2023-03-25T10:52:48;94094.72;;;19.41;46.61
12785;BME280;6456;42.680;23.260;2023-03-25T10:55:22;94084.06;;;19.36;47.07
12785;BME280;6456;42.680;23.260;2023-03-25T10:57:51;94082.56;;;19.58;46.92
12785;BME280;6456;42.680;23.260;2023-03-25T11:00:20;94082.25;;;19.60;46.68
12785;BME280;6456;42.680;23.260;2023-03-25T11:02:49;94074.41;;;19.73;45.73
12785;BME280;6456;42.680;23.260;2023-03-25T11:05:18;94071.63;;;19.83;47.26
12785;BME280;6456;42.680;23.260;2023-03-25T11:07:48;94066.47;;;19.92;45.54
12785;BME280;6456;42.680;23.260;2023-03-25T11:10:20;94058.41;;;19.97;44.38
12785;BME280;6456;42.680;23.260;2023-03-25T11:12:50;94057.38;;;19.93;44.20
12785;BME280;6456;42.680;23.260;2023-03-25T11:15:20;94062.16;;;19.96;42.83
12785;BME280;6456;42.680;23.260;2023-03-25T11:17:55;94067.50;;;19.96;42.29
12785;BME280;6456;42.680;23.260;2023-03-25T11:20:27;94060.41;;;20.10;44.51
12785;BME280;6456;42.680;23.260;2023-03-25T11:23:02;94058.91;;;19.99;43.72
12785;BME280;6456;42.680;23.260;2023-03-25T11:25:35;94056.19;;;20.04;41.44
12785;BME280;6456;42.680;23.260;2023-03-25T11:28:10;94056.66;;;20.11;40.73
12785;BME280;6456;42.680;23.260;2023-03-25T11:31:10;94026.28;;;20.02;40.67
12785;BME280;6456;42.680;23.260;2023-03-25T11:33:39;94041.34;;;20.17;40.34
12785;BME280;6456;42.680;23.260;2023-03-25T11:36:20;94024.38;;;20.31;39.83
12785;BME280;6456;42.680;23.260;2023-03-25T11:38:51;94002.22;;;20.31;40.12
12785;BME280;6456;42.680;23.260;2023-03-25T11:41:18;94026.13;;;20.78;41.74
12785;BME280;6456;42.680;23.260;2023-03-25T11:43:48;94025.41;;;21.10;39.93
12785;BME280;6456;42.680;23.260;2023-03-25T11:46:17;93985.38;;;20.86;37.34
12785;BME280;6456;42.680;23.260;2023-03-25T11:48:46;94022.41;;;21.30;39.09
12785;BME280;6456;42.680;23.260;2023-03-25T11:51:18;93959.66;;;20.72;38.02
12785;BME280;6456;42.680;23.260;2023-03-25T11:53:48;94013.47;;;21.02;37.44
12785;BME280;6456;42.680;23.260;2023-03-25T11:56:19;94024.84;;;21.13;37.52
12785;BME280;6456;42.680;23.260;2023-03-25T11:58:49;94003.84;;;21.20;39.81
12785;BME280;6456;42.680;23.260;2023-03-25T12:01:22;94020.69;;;21.21;36.94
12785;BME280;6456;42.680;23.260;2023-03-25T12:03:50;94001.66;;;21.08;37.20
12785;BME280;6456;42.680;23.260;2023-03-25T12:06:19;93992.72;;;20.94;37.54
12785;BME280;6456;42.680;23.260;2023-03-25T12:08:57;93954.19;;;20.44;36.97
12785;BME280;6456;42.680;23.260;2023-03-25T12:11:27;94007.19;;;20.75;38.63
12785;BME280;6456;42.680;23.260;2023-03-25T12:14:22;93999.63;;;20.63;37.28
12785;BME280;6456;42.680;23.260;2023-03-25T12:16:56;93989.13;;;20.29;37.27
12785;BME280;6456;42.680;23.260;2023-03-25T12:19:33;93994.47;;;20.06;39.01
12785;BME280;6456;42.680;23.260;2023-03-25T12:22:16;93999.47;;;20.12;37.61
12785;BME280;6456;42.680;23.260;2023-03-25T12:27:57;93969.38;;;19.83;38.52
12785;BME280;6456;42.680;23.260;2023-03-25T12:30:35;94009.28;;;20.17;39.40
12785;BME280;6456;42.680;23.260;2023-03-25T12:33:19;93995.47;;;19.91;37.61
12785;BME280;6456;42.680;23.260;2023-03-25T12:36:03;94005.03;;;19.92;38.75
12785;BME280;6456;42.680;23.260;2023-03-25T12:38:42;93969.50;;;19.73;38.35
12785;BME280;6456;42.680;23.260;2023-03-25T12:41:18;94004.59;;;20.09;38.98
12785;BME280;6456;42.680;23.260;2023-03-25T12:44:01;93990.06;;;19.96;38.57
12785;BME280;6456;42.680;23.260;2023-03-25T12:46:47;93977.47;;;19.97;38.37
12785;BME280;6456;42.680;23.260;2023-03-25T12:49:28;93999.41;;;20.17;38.21
12785;BME280;6456;42.680;23.260;2023-03-25T12:52:03;93999.75;;;20.34;37.81
12785;BME280;6456;42.680;23.260;2023-03-25T12:54:48;94005.63;;;20.36;37.96
12785;BME280;6456;42.680;23.260;2023-03-25T12:57:39;93975.81;;;20.24;36.63
12785;BME280;6456;42.680;23.260;2023-03-25T13:00:21;93986.50;;;20.24;37.86
12785;BME280;6456;42.680;23.260;2023-03-25T13:03:36;93995.66;;;20.18;38.11
12785;BME280;6456;42.680;23.260;2023-03-25T13:06:15;93973.41;;;19.80;38.32
12785;BME280;6456;42.680;23.260;2023-03-25T13:08:46;93952.00;;;19.62;39.70
12785;BME280;6456;42.680;23.260;2023-03-25T13:11:20;93974.72;;;19.83;38.89
12785;BME280;6456;42.680;23.260;2023-03-25T13:13:51;94002.94;;;19.89;38.52
12785;BME280;6456;42.680;23.260;2023-03-25T13:16:21;93991.09;;;19.76;39.48
12785;BME280;6456;42.680;23.260;2023-03-25T13:18:54;93962.16;;;19.60;40.93
12785;BME280;6456;42.680;23.260;2023-03-25T13:21:25;93968.88;;;19.57;39.68
12785;BME280;6456;42.680;23.260;2023-03-25T13:23:57;93968.31;;;19.60;39.49
12785;BME280;6456;42.680;23.260;2023-03-25T13:26:26;93992.97;;;19.76;39.67
12785;BME280;6456;42.680;23.260;2023-03-25T13:28:56;93996.94;;;19.78;40.55
12785;BME280;6456;42.680;23.260;2023-03-25T13:31:29;94007.44;;;19.70;41.25
12785;BME280;6456;42.680;23.260;2023-03-25T13:34:05;93996.91;;;19.55;39.71
12785;BME280;6456;42.680;23.260;2023-03-25T13:36:38;93988.22;;;19.44;40.32